sensor_id;sensor_type;location;lat;lon;timestamp;noise_LAeq;noise_LA_min;noise_LA_max;noise_LA01;noise_LA95
57439;Laerm;43282;47.188;8.896;2023-01-15T00:01:17;46.35;40.23;61.55;;
57439;Laerm;43282;47.188;8.896;2023-01-15T00:03:55;47.95;40.71;61.78;;
57439;Laerm;43282;47.188;8.896;2023-01-15T00:06:39;52.05;40.62;64.78;;
57439;Laerm;43282;47.188;8.896;2023-01-15T00:09:05;49.43;41.96;62.58;;
57439;Laerm;43282;47.188;8.896;2023-01-15T00:11:30;48.00;38.95;60.11;;
57439;Laerm;43282;47.188;8.896;2023-01-15T00:13:56;52.56;38.21;67.02;;
57439;Laerm;43282;47.188;8.896;2023-01-15T00:16:33;46.43;39.58;56.36;;
57439;Laerm;43282;47.188;8.896;2023-01-15T00:18:59;45.69;38.67;59.18;;
57439;Laerm;43282;47.188;8.896;2023-01-15T00:21:25;54.03;41.53;69.84;;
57439;Laerm;43282;47.188;8.896;2023-01-15T00:23:51;48.58;41.14;63.31;;
57439;Laerm;43282;47.188;8.896;2023-01-15T00:26:35;51.71;40.80;63.55;;
57439;Laerm;43282;47.188;8.896;2023-01-15T00:29:19;50.81;41.55;63.21;;
57439;Laerm;43282;47.188;8.896;2023-01-15T00:32:18;52.55;42.59;67.18;;
57439;Laerm;43282;47.188;8.896;2023-01-15T00:34:49;52.41;41.22;63.59;;
57439;Laerm;43282;47.188;8.896;2023-01-15T00:37:26;52.07;42.29;64.36;;
57439;Laerm;43282;47.188;8.896;2023-01-15T00:39:51;51.18;42.64;62.10;;
57439;Laerm;43282;47.188;8.896;2023-01-15T00:42:17;50.93;40.71;61.62;;
57439;Laerm;43282;47.188;8.896;2023-01-15T00:44:54;52.29;39.46;68.72;;
57439;Laerm;43282;47.188;8.896;2023-01-15T00:47:27;53.59;40.03;65.56;;
57439;Laerm;43282;47.188;8.896;2023-01-15T00:49:52;49.25;38.60;67.35;;
57439;Laerm;43282;47.188;8.896;2023-01-15T00:52:18;51.96;39.70;72.75;;
57439;Laerm;43282;47.188;8.896;2023-01-15T00:54:43;45.42;39.81;53.56;;
57439;Laerm;43282;47.188;8.896;2023-01-15T00:57:09;46.11;41.30;57.69;;
57439;Laerm;43282;47.188;8.896;2023-01-15T00:59:35;48.85;37.88;62.46;;
57439;Laerm;43282;47.188;8.896;2023-01-15T01:02:00;48.91;40.62;63.50;;
57439;Laerm;43282;47.188;8.896;2023-01-15T01:04:26;49.98;40.98;65.08;;
57439;Laerm;43282;47.188;8.896;2023-01-15T01:06:51;48.78;40.23;61.44;;
57439;Laerm;43282;47.188;8.896;2023-01-15T01:09:17;49.38;40.13;60.78;;
57439;Laerm;43282;47.188;8.896;2023-01-15T01:11:43;43.94;38.67;56.93;;
57439;Laerm;43282;47.188;8.896;2023-01-15T01:14:09;47.11;39.58;62.20;;
57439;Laerm;43282;47.188;8.896;2023-01-15T01:16:36;51.39;38.81;66.31;;
57439;Laerm;43282;47.188;8.896;2023-01-15T01:19:03;49.73;38.52;63.59;;
57439;Laerm;43282;47.188;8.896;2023-01-15T01:21:29;48.20;38.21;62.48;;
57439;Laerm;43282;47.188;8.896;2023-01-15T01:23:56;43.19;38.52;49.87;;
57439;Laerm;43282;47.188;8.896;2023-01-15T01:26:22;48.77;38.37;63.61;;
57439;Laerm;43282;47.188;8.896;2023-01-15T01:28:48;54.47;40.96;71.98;;
57439;Laerm;43282;47.188;8.896;2023-01-15T01:31:13;48.94;39.46;63.72;;
57439;Laerm;43282;47.188;8.896;2023-01-15T01:33:39;48.42;39.70;62.31;;
57439;Laerm;43282;47.188;8.896;2023-01-15T01:36:04;43.45;39.81;51.60;;
57439;Laerm;43282;47.188;8.896;2023-01-15T01:38:29;47.07;39.46;62.79;;
57439;Laerm;43282;47.188;8.896;2023-01-15T01:40:55;48.40;38.05;64.58;;
57439;Laerm;43282;47.188;8.896;2023-01-15T01:43:25;44.66;38.67;59.61;;
57439;Laerm;43282;47.188;8.896;2023-01-15T01:45:51;50.35;39.92;63.97;;
57439;Laerm;43282;47.188;8.896;2023-01-15T01:48:17;50.80;40.71;64.63;;
57439;Laerm;43282;47.188;8.896;2023-01-15T01:50:45;47.94;40.71;63.28;;
57439;Laerm;43282;47.188;8.896;2023-01-15T01:53:13;48.75;41.14;64.18;;
57439;Laerm;43282;47.188;8.896;2023-01-15T01:55:41;46.91;41.30;62.24;;
57439;Laerm;43282;47.188;8.896;2023-01-15T01:58:06;48.55;40.62;60.61;;
57439;Laerm;43282;47.188;8.896;2023-01-15T02:00:34;49.75;40.33;67.58;;
57439;Laerm;43282;47.188;8.896;2023-01-15T02:03:00;51.25;39.58;65.16;;
57439;Laerm;43282;47.188;8.896;2023-01-15T02:05:30;46.98;40.08;60.99;;
57439;Laerm;43282;47.188;8.896;2023-01-15T02:07:56;48.39;40.43;62.57;;
57439;Laerm;43282;47.188;8.896;2023-01-15T02:10:21;50.35;38.52;62.59;;
57439;Laerm;43282;47.188;8.896;2023-01-15T02:12:48;51.89;40.43;65.61;;
57439;Laerm;43282;47.188;8.896;2023-01-15T02:15:28;52.04;39.58;67.63;;
57439;Laerm;43282;47.188;8.896;2023-01-15T02:18:04;51.18;39.57;66.89;;
57439;Laerm;43282;47.188;8.896;2023-01-15T02:20:37;48.48;37.32;66.43;;
57439;Laerm;43282;47.188;8.896;2023-01-15T02:23:15;48.20;39.21;63.26;;
57439;Laerm;43282;47.188;8.896;2023-01-15T02:25:57;46.59;38.05;62.48;;
57439;Laerm;43282;47.188;8.896;2023-01-15T02:28:39;41.37;37.12;46.33;;
57439;Laerm;43282;47.188;8.896;2023-01-15T02:31:09;47.08;37.52;63.11;;
57439;Laerm;43282;47.188;8.896;2023-01-15T02:33:57;45.95;38.21;62.37;;
57439;Laerm;43282;47.188;8.896;2023-01-15T02:36:36;49.45;38.95;65.92;;
57439;Laerm;43282;47.188;8.896;2023-01-15T02:39:04;45.03;39.70;59.07;;
57439;Laerm;43282;47.188;8.896;2023-01-15T02:41:44;46.35;38.52;61.03;;
57439;Laerm;43282;47.188;8.896;2023-01-15T02:44:12;41.46;37.88;47.88;;
57439;Laerm;43282;47.188;8.896;2023-01-15T02:46:50;46.94;37.88;62.39;;
57439;Laerm;43282;47.188;8.896;2023-01-15T02:49:27;49.99;36.45;66.82;;
57439;Laerm;43282;47.188;8.896;2023-01-15T02:52:05;48.72;38.52;64.08;;
57439;Laerm;43282;47.188;8.896;2023-01-15T02:54:47;45.20;39.35;59.16;;
57439;Laerm;43282;47.188;8.896;2023-01-15T02:57:13;47.54;37.70;63.35;;
57439;Laerm;43282;47.188;8.896;2023-01-15T02:59:41;50.52;39.08;64.78;;
57439;Laerm;43282;47.188;8.896;2023-01-15T03:02:20;47.41;40.13;65.77;;
57439;Laerm;43282;47.188;8.896;2023-01-15T03:04:48;51.14;39.92;68.05;;
57439;Laerm;43282;47.188;8.896;2023-01-15T03:10:10;45.29;38.81;60.08;;
57439;Laerm;43282;47.188;8.896;2023-01-15T03:12:56;48.83;39.92;64.76;;
57439;Laerm;43282;47.188;8.896;2023-01-15T03:15:34;48.48;40.03;64.21;;
57439;Laerm;43282;47.188;8.896;2023-01-15T03:18:21;46.88;39.70;64.29;;
57439;Laerm;43282;47.188;8.896;2023-01-15T03:20:49;48.09;40.13;64.36;;
57439;Laerm;43282;47.188;8.896;2023-01-15T03:23:15;48.33;39.81;60.67;;
57439;Laerm;43282;47.188;8.896;2023-01-15T03:25:45;49.71;40.13;64.54;;
57439;Laerm;43282;47.188;8.896;2023-01-15T03:28:13;44.99;37.52;61.11;;
57439;Laerm;43282;47.188;8.896;2023-01-15T03:30:39;43.63;37.88;61.39;;
57439;Laerm;43282;47.188;8.896;2023-01-15T03:33:18;46.62;36.91;64.52;;
57439;Laerm;43282;47.188;8.896;2023-01-15T03:35:58;42.44;39.58;47.68;;
57439;Laerm;43282;47.188;8.896;2023-01-15T03:38:36;43.38;40.03;50.92;;
57439;Laerm;43282;47.188;8.896;2023-01-15T03:41:18;46.05;39.92;61.45;;
57439;Laerm;43282;47.188;8.896;2023-01-15T03:52:00;45.39;40.03;59.65;;
57439;Laerm;43282;47.188;8.896;2023-01-15T03:54:31;42.20;39.21;55.81;;
57439;Laerm;43282;47.188;8.896;2023-01-15T03:57:00;46.61;39.21;63.28;;
57439;Laerm;43282;47.188;8.896;2023-01-15T03:59:31;41.71;38.37;54.33;;
57439;Laerm;43282;47.188;8.896;2023-01-15T04:01:58;45.19;38.95;55.01;;
57439;Laerm;43282;47.188;8.896;2023-01-15T04:04:25;56.14;41.38;74.19;;
57439;Laerm;43282;47.188;8.896;2023-01-15T04:06:51;47.60;41.06;64.53;;
57439;Laerm;43282;47.188;8.896;2023-01-15T04:09:17;43.77;40.98;53.01;;
57439;Laerm;43282;47.188;8.896;2023-01-15T04:11:43;47.80;41.14;64.43;;
57439;Laerm;43282;47.188;8.896;2023-01-15T04:14:08;48.32;41.96;63.12;;
57439;Laerm;43282;47.188;8.896;2023-01-15T04:16:36;45.40;39.81;56.58;;
57439;Laerm;43282;47.188;8.896;2023-01-15T04:19:02;46.70;40.62;60.86;;
57439;Laerm;43282;47.188;8.896;2023-01-15T04:21:27;45.95;40.33;57.18;;
57439;Laerm;43282;47.188;8.896;2023-01-15T04:23:52;46.97;41.46;62.26;;
57439;Laerm;43282;47.188;8.896;2023-01-15T04:26:18;44.34;40.62;56.03;;
57439;Laerm;43282;47.188;8.896;2023-01-15T04:28:43;45.13;40.33;55.12;;
57439;Laerm;43282;47.188;8.896;2023-01-15T04:31:09;45.01;40.62;58.86;;
57439;Laerm;43282;47.188;8.896;2023-01-15T04:33:34;50.62;41.30;66.99;;
57439;Laerm;43282;47.188;8.896;2023-01-15T04:36:00;50.20;41.38;65.94;;
57439;Laerm;43282;47.188;8.896;2023-01-15T04:38:25;51.76;41.75;65.94;;
57439;Laerm;43282;47.188;8.896;2023-01-15T04:40:51;43.05;40.03;52.10;;
57439;Laerm;43282;47.188;8.896;2023-01-15T04:43:35;51.81;40.23;68.31;;
57439;Laerm;43282;47.188;8.896;2023-01-15T04:46:22;50.91;40.62;66.78;;
57439;Laerm;43282;47.188;8.896;2023-01-15T04:48:47;43.00;40.23;56.11;;
57439;Laerm;43282;47.188;8.896;2023-01-15T04:51:12;50.81;40.33;66.86;;
57439;Laerm;43282;47.188;8.896;2023-01-15T04:53:38;49.61;40.71;66.79;;
57439;Laerm;43282;47.188;8.896;2023-01-15T04:56:03;47.21;39.21;62.55;;
57439;Laerm;43282;47.188;8.896;2023-01-15T04:58:29;43.93;39.92;60.72;;
57439;Laerm;43282;47.188;8.896;2023-01-15T05:00:55;47.77;40.71;63.30;;
57439;Laerm;43282;47.188;8.896;2023-01-15T05:03:20;53.55;41.61;65.27;;
57439;Laerm;43282;47.188;8.896;2023-01-15T05:05:46;57.32;45.66;68.89;;
57439;Laerm;43282;47.188;8.896;2023-01-15T05:08:11;48.54;41.46;66.38;;
57439;Laerm;43282;47.188;8.896;2023-01-15T05:10:36;51.32;41.82;69.58;;
57439;Laerm;43282;47.188;8.896;2023-01-15T05:13:14;44.55;40.63;66.45;;
57439;Laerm;43282;47.188;8.896;2023-01-15T05:15:39;48.82;40.98;65.15;;
57439;Laerm;43282;47.188;8.896;2023-01-15T05:18:06;46.18;41.68;64.74;;
57439;Laerm;43282;47.188;8.896;2023-01-15T05:20:35;51.95;42.35;69.37;;
57439;Laerm;43282;47.188;8.896;2023-01-15T05:23:12;52.53;41.89;68.42;;
57439;Laerm;43282;47.188;8.896;2023-01-15T05:25:49;52.29;42.22;67.17;;
57439;Laerm;43282;47.188;8.896;2023-01-15T05:28:15;48.47;42.98;64.64;;
57439;Laerm;43282;47.188;8.896;2023-01-15T05:30:40;50.35;42.93;65.35;;
57439;Laerm;43282;47.188;8.896;2023-01-15T05:33:05;48.48;42.76;64.93;;
57439;Laerm;43282;47.188;8.896;2023-01-15T05:35:31;52.42;45.07;68.45;;
57439;Laerm;43282;47.188;8.896;2023-01-15T05:37:56;55.54;44.80;69.94;;
57439;Laerm;43282;47.188;8.896;2023-01-15T05:40:21;51.92;45.01;66.73;;
57439;Laerm;43282;47.188;8.896;2023-01-15T05:42:47;55.43;44.43;69.48;;
57439;Laerm;43282;47.188;8.896;2023-01-15T05:45:12;54.02;44.87;73.10;;
57439;Laerm;43282;47.188;8.896;2023-01-15T05:47:37;54.90;43.14;70.06;;
57439;Laerm;43282;47.188;8.896;2023-01-15T05:50:02;54.63;43.49;69.51;;
57439;Laerm;43282;47.188;8.896;2023-01-15T05:52:28;50.47;42.47;68.10;;
57439;Laerm;43282;47.188;8.896;2023-01-15T05:54:53;55.07;43.68;71.18;;
57439;Laerm;43282;47.188;8.896;2023-01-15T05:57:18;48.82;42.82;61.56;;
57439;Laerm;43282;47.188;8.896;2023-01-15T05:59:44;52.56;42.59;69.46;;
57439;Laerm;43282;47.188;8.896;2023-01-15T06:02:09;57.66;43.34;75.29;;
57439;Laerm;43282;47.188;8.896;2023-01-15T06:04:34;56.27;42.93;71.08;;
57439;Laerm;43282;47.188;8.896;2023-01-15T06:07:00;52.83;43.29;69.69;;
57439;Laerm;43282;47.188;8.896;2023-01-15T06:09:25;53.39;43.49;70.75;;
57439;Laerm;43282;47.188;8.896;2023-01-15T06:11:52;52.89;43.14;68.01;;
57439;Laerm;43282;47.188;8.896;2023-01-15T06:14:18;59.48;42.47;75.73;;
57439;Laerm;43282;47.188;8.896;2023-01-15T06:16:43;49.43;43.44;67.82;;
57439;Laerm;43282;47.188;8.896;2023-01-15T06:19:09;57.42;45.72;70.54;;
57439;Laerm;43282;47.188;8.896;2023-01-15T06:21:35;53.44;43.44;68.20;;
57439;Laerm;43282;47.188;8.896;2023-01-15T06:24:01;55.84;42.47;69.10;;
57439;Laerm;43282;47.188;8.896;2023-01-15T06:26:26;57.24;46.52;68.63;;
57439;Laerm;43282;47.188;8.896;2023-01-15T06:28:52;56.95;47.12;70.55;;
57439;Laerm;43282;47.188;8.896;2023-01-15T06:31:18;54.50;44.35;68.15;;
57439;Laerm;43282;47.188;8.896;2023-01-15T06:33:44;56.34;47.52;69.81;;
57439;Laerm;43282;47.188;8.896;2023-01-15T06:36:13;58.12;47.52;72.79;;
57439;Laerm;43282;47.188;8.896;2023-01-15T06:38:39;55.06;44.15;67.52;;
57439;Laerm;43282;47.188;8.896;2023-01-15T06:41:06;54.39;44.23;68.26;;
57439;Laerm;43282;47.188;8.896;2023-01-15T06:43:54;56.26;44.47;71.98;;
57439;Laerm;43282;47.188;8.896;2023-01-15T06:46:39;53.90;44.65;65.76;;
57439;Laerm;43282;47.188;8.896;2023-01-15T06:49:26;54.66;44.19;69.67;;
57439;Laerm;43282;47.188;8.896;2023-01-15T06:51:51;55.81;45.83;68.14;;
57439;Laerm;43282;47.188;8.896;2023-01-15T06:54:16;56.43;44.97;71.56;;
57439;Laerm;43282;47.188;8.896;2023-01-15T06:56:41;54.42;45.27;67.48;;
57439;Laerm;43282;47.188;8.896;2023-01-15T06:59:07;56.74;44.94;68.97;;
57439;Laerm;43282;47.188;8.896;2023-01-15T07:01:32;56.51;44.23;73.22;;
57439;Laerm;43282;47.188;8.896;2023-01-15T07:03:57;52.25;46.50;61.55;;
57439;Laerm;43282;47.188;8.896;2023-01-15T07:06:23;54.10;44.47;69.18;;
57439;Laerm;43282;47.188;8.896;2023-01-15T07:08:48;55.06;45.07;68.29;;
57439;Laerm;43282;47.188;8.896;2023-01-15T07:11:13;52.82;44.11;63.60;;
57439;Laerm;43282;47.188;8.896;2023-01-15T07:13:39;59.18;46.15;70.01;;
57439;Laerm;43282;47.188;8.896;2023-01-15T07:16:04;57.65;48.73;69.06;;
57439;Laerm;43282;47.188;8.896;2023-01-15T07:18:30;58.27;46.91;70.57;;
57439;Laerm;43282;47.188;8.896;2023-01-15T07:20:56;55.58;47.00;64.40;;
57439;Laerm;43282;47.188;8.896;2023-01-15T07:23:23;58.24;48.08;67.51;;
57439;Laerm;43282;47.188;8.896;2023-01-15T07:25:49;58.39;47.48;71.56;;
57439;Laerm;43282;47.188;8.896;2023-01-15T07:28:14;56.47;46.55;68.85;;
57439;Laerm;43282;47.188;8.896;2023-01-15T07:30:39;54.84;46.18;66.56;;
57439;Laerm;43282;47.188;8.896;2023-01-15T07:33:05;55.69;46.30;66.87;;
57439;Laerm;43282;47.188;8.896;2023-01-15T07:35:30;55.64;45.60;71.15;;
57439;Laerm;43282;47.188;8.896;2023-01-15T07:37:55;56.21;44.35;67.72;;
57439;Laerm;43282;47.188;8.896;2023-01-15T07:40:21;54.08;44.19;69.31;;
57439;Laerm;43282;47.188;8.896;2023-01-15T07:42:46;57.42;44.76;74.17;;
57439;Laerm;43282;47.188;8.896;2023-01-15T07:45:30;53.01;45.14;65.47;;
57439;Laerm;43282;47.188;8.896;2023-01-15T07:48:13;53.01;44.19;66.70;;
57439;Laerm;43282;47.188;8.896;2023-01-15T07:50:57;53.52;43.86;67.17;;
57439;Laerm;43282;47.188;8.896;2023-01-15T07:53:23;55.16;45.45;67.14;;
57439;Laerm;43282;47.188;8.896;2023-01-15T07:55:48;57.17;45.17;70.58;;
57439;Laerm;43282;47.188;8.896;2023-01-15T07:58:13;56.57;45.01;66.86;;
57439;Laerm;43282;47.188;8.896;2023-01-15T08:00:39;52.10;45.39;64.39;;
57439;Laerm;43282;47.188;8.896;2023-01-15T08:03:04;58.04;46.36;73.92;;
57439;Laerm;43282;47.188;8.896;2023-01-15T08:05:30;56.01;46.35;68.38;;
57439;Laerm;43282;47.188;8.896;2023-01-15T08:07:56;57.05;45.51;69.14;;
57439;Laerm;43282;47.188;8.896;2023-01-15T08:10:21;51.59;45.07;65.62;;
57439;Laerm;43282;47.188;8.896;2023-01-15T08:12:48;53.91;44.83;65.17;;
57439;Laerm;43282;47.188;8.896;2023-01-15T08:15:32;56.02;43.34;71.13;;
57439;Laerm;43282;47.188;8.896;2023-01-15T08:17:58;53.78;43.29;65.84;;
57439;Laerm;43282;47.188;8.896;2023-01-15T08:20:24;55.74;44.27;70.19;;
57439;Laerm;43282;47.188;8.896;2023-01-15T08:22:50;57.27;45.07;71.75;;
57439;Laerm;43282;47.188;8.896;2023-01-15T08:25:16;54.46;44.69;68.91;;
57439;Laerm;43282;47.188;8.896;2023-01-15T08:27:42;54.79;47.36;67.35;;
57439;Laerm;43282;47.188;8.896;2023-01-15T08:30:11;56.52;45.80;67.30;;
57439;Laerm;43282;47.188;8.896;2023-01-15T08:32:57;55.22;44.43;67.59;;
57439;Laerm;43282;47.188;8.896;2023-01-15T08:35:22;59.14;46.18;73.12;;
57439;Laerm;43282;47.188;8.896;2023-01-15T08:38:06;55.75;44.94;68.23;;
57439;Laerm;43282;47.188;8.896;2023-01-15T08:40:43;57.18;46.62;70.07;;
57439;Laerm;43282;47.188;8.896;2023-01-15T08:43:25;56.94;45.99;73.39;;
57439;Laerm;43282;47.188;8.896;2023-01-15T08:45:50;53.90;44.03;67.18;;
57439;Laerm;43282;47.188;8.896;2023-01-15T08:48:16;56.26;43.72;70.17;;
57439;Laerm;43282;47.188;8.896;2023-01-15T08:50:42;57.74;43.90;68.06;;
57439;Laerm;43282;47.188;8.896;2023-01-15T08:53:07;57.64;47.91;68.50;;
57439;Laerm;43282;47.188;8.896;2023-01-15T08:55:32;56.66;45.83;70.59;;
57439;Laerm;43282;47.188;8.896;2023-01-15T08:57:57;59.52;45.42;72.40;;
57439;Laerm;43282;47.188;8.896;2023-01-15T09:00:23;58.50;44.31;72.05;;
57439;Laerm;43282;47.188;8.896;2023-01-15T09:02:49;58.29;44.90;73.92;;
57439;Laerm;43282;47.188;8.896;2023-01-15T09:05:14;57.33;46.43;77.09;;
57439;Laerm;43282;47.188;8.896;2023-01-15T09:07:40;57.50;48.03;67.63;;
57439;Laerm;43282;47.188;8.896;2023-01-15T09:10:05;56.80;45.20;69.25;;
57439;Laerm;43282;47.188;8.896;2023-01-15T09:12:31;57.27;48.28;70.60;;
57439;Laerm;43282;47.188;8.896;2023-01-15T09:14:56;56.58;48.64;68.11;;
57439;Laerm;43282;47.188;8.896;2023-01-15T09:17:38;58.27;47.46;73.28;;
57439;Laerm;43282;47.188;8.896;2023-01-15T09:20:17;56.96;44.23;67.77;;
57439;Laerm;43282;47.188;8.896;2023-01-15T09:22:55;55.01;45.45;66.71;;
57439;Laerm;43282;47.188;8.896;2023-01-15T09:25:32;54.93;45.89;66.36;;
57439;Laerm;43282;47.188;8.896;2023-01-15T09:28:09;58.29;48.03;69.59;;
57439;Laerm;43282;47.188;8.896;2023-01-15T09:30:48;59.34;51.80;74.03;;
57439;Laerm;43282;47.188;8.896;2023-01-15T09:33:13;62.05;51.54;85.54;;
57439;Laerm;43282;47.188;8.896;2023-01-15T09:35:39;60.62;51.17;75.16;;
57439;Laerm;43282;47.188;8.896;2023-01-15T09:38:04;58.69;50.53;72.26;;
57439;Laerm;43282;47.188;8.896;2023-01-15T09:45:46;61.42;52.13;80.61;;
57439;Laerm;43282;47.188;8.896;2023-01-15T09:48:18;60.19;51.21;72.12;;
57439;Laerm;43282;47.188;8.896;2023-01-15T09:50:47;62.93;54.21;83.12;;
57439;Laerm;43282;47.188;8.896;2023-01-15T09:55:44;63.92;55.18;75.72;;
57439;Laerm;43282;47.188;8.896;2023-01-15T09:58:10;63.53;53.14;73.81;;
57439;Laerm;43282;47.188;8.896;2023-01-15T10:00:39;62.51;54.18;71.17;;
57439;Laerm;43282;47.188;8.896;2023-01-15T10:03:26;64.56;52.85;78.65;;
57439;Laerm;43282;47.188;8.896;2023-01-15T10:06:14;63.17;50.30;75.42;;
57439;Laerm;43282;47.188;8.896;2023-01-15T10:09:14;61.15;48.88;72.36;;
57439;Laerm;43282;47.188;8.896;2023-01-15T10:11:55;61.94;50.11;75.67;;
57439;Laerm;43282;47.188;8.896;2023-01-15T10:15:15;62.62;51.04;75.49;;
57439;Laerm;43282;47.188;8.896;2023-01-15T10:17:39;60.33;51.26;71.79;;
57439;Laerm;43282;47.188;8.896;2023-01-15T10:20:30;63.83;51.99;75.96;;
57439;Laerm;43282;47.188;8.896;2023-01-15T10:22:58;62.77;51.77;75.99;;
57439;Laerm;43282;47.188;8.896;2023-01-15T10:25:30;58.17;50.49;72.49;;
57439;Laerm;43282;47.188;8.896;2023-01-15T10:28:01;57.41;49.51;69.09;;
57439;Laerm;43282;47.188;8.896;2023-01-15T10:30:49;58.28;49.12;69.13;;
57439;Laerm;43282;47.188;8.896;2023-01-15T10:36:35;60.64;50.87;72.16;;
57439;Laerm;43282;47.188;8.896;2023-01-15T10:39:17;62.83;52.36;72.36;;
57439;Laerm;43282;47.188;8.896;2023-01-15T10:44:49;60.12;51.39;73.11;;
57439;Laerm;43282;47.188;8.896;2023-01-15T10:47:29;63.02;51.64;79.22;;
57439;Laerm;43282;47.188;8.896;2023-01-15T10:49:57;62.13;50.60;79.28;;
57439;Laerm;43282;47.188;8.896;2023-01-15T10:52:26;61.72;50.18;73.05;;
57439;Laerm;43282;47.188;8.896;2023-01-15T10:55:02;62.08;51.06;73.29;;
57439;Laerm;43282;47.188;8.896;2023-01-15T10:57:43;62.81;49.32;74.60;;
57439;Laerm;43282;47.188;8.896;2023-01-15T11:00:13;61.05;49.36;72.14;;
57439;Laerm;43282;47.188;8.896;2023-01-15T11:05:03;57.82;47.12;72.15;;
57439;Laerm;43282;47.188;8.896;2023-01-15T11:07:36;60.08;47.40;74.39;;
57439;Laerm;43282;47.188;8.896;2023-01-15T11:10:04;59.54;47.02;71.93;;
57439;Laerm;43282;47.188;8.896;2023-01-15T11:12:30;57.34;47.28;73.06;;
57439;Laerm;43282;47.188;8.896;2023-01-15T11:15:15;59.05;46.20;71.16;;
57439;Laerm;43282;47.188;8.896;2023-01-15T11:17:59;60.74;47.63;73.02;;
57439;Laerm;43282;47.188;8.896;2023-01-15T11:20:45;56.70;46.50;70.99;;
57439;Laerm;43282;47.188;8.896;2023-01-15T11:23:14;60.04;47.04;71.95;;
57439;Laerm;43282;47.188;8.896;2023-01-15T11:25:47;59.58;47.50;71.89;;
57439;Laerm;43282;47.188;8.896;2023-01-15T11:28:13;59.39;47.22;72.98;;
57439;Laerm;43282;47.188;8.896;2023-01-15T11:30:39;59.27;47.38;71.13;;
57439;Laerm;43282;47.188;8.896;2023-01-15T11:33:15;60.91;47.55;75.00;;
57439;Laerm;43282;47.188;8.896;2023-01-15T11:35:57;61.34;47.63;73.02;;
57439;Laerm;43282;47.188;8.896;2023-01-15T11:38:57;59.57;47.77;71.45;;
57439;Laerm;43282;47.188;8.896;2023-01-15T11:41:19;60.00;47.65;71.31;;
57439;Laerm;43282;47.188;8.896;2023-01-15T11:43:55;61.20;49.71;72.59;;
57439;Laerm;43282;47.188;8.896;2023-01-15T11:46:39;61.53;48.43;75.90;;
57439;Laerm;43282;47.188;8.896;2023-01-15T11:49:23;59.10;48.94;71.15;;
57439;Laerm;43282;47.188;8.896;2023-01-15T11:52:24;60.81;49.62;77.94;;
57439;Laerm;43282;47.188;8.896;2023-01-15T11:54:51;61.48;49.94;72.12;;
57439;Laerm;43282;47.188;8.896;2023-01-15T11:57:25;58.86;50.99;72.44;;
57439;Laerm;43282;47.188;8.896;2023-01-15T11:59:51;60.84;50.63;76.07;;
57439;Laerm;43282;47.188;8.896;2023-01-15T12:02:21;60.97;50.55;75.58;;
57439;Laerm;43282;47.188;8.896;2023-01-15T12:04:52;61.08;49.20;73.57;;
57439;Laerm;43282;47.188;8.896;2023-01-15T12:07:19;60.14;50.55;72.31;;
57439;Laerm;43282;47.188;8.896;2023-01-15T12:10:01;61.52;49.52;73.81;;
57439;Laerm;43282;47.188;8.896;2023-01-15T12:12:38;59.21;49.62;72.35;;
57439;Laerm;43282;47.188;8.896;2023-01-15T12:23:01;59.43;48.76;71.03;;
57439;Laerm;43282;47.188;8.896;2023-01-15T12:28:00;61.94;50.54;73.74;;
57439;Laerm;43282;47.188;8.896;2023-01-15T12:32:54;61.08;48.43;73.37;;
57439;Laerm;43282;47.188;8.896;2023-01-15T12:35:29;60.56;49.34;71.36;;
57439;Laerm;43282;47.188;8.896;2023-01-15T12:37:56;60.32;48.85;71.36;;
57439;Laerm;43282;47.188;8.896;2023-01-15T12:40:32;60.73;49.21;72.17;;
57439;Laerm;43282;47.188;8.896;2023-01-15T12:43:02;59.97;49.82;71.61;;
57439;Laerm;43282;47.188;8.896;2023-01-15T12:45:47;60.45;49.30;74.32;;
57439;Laerm;43282;47.188;8.896;2023-01-15T12:48:15;60.36;49.81;72.39;;
57439;Laerm;43282;47.188;8.896;2023-01-15T12:50:50;61.91;50.40;71.68;;
57439;Laerm;43282;47.188;8.896;2023-01-15T12:55:47;61.61;49.55;73.23;;
57439;Laerm;43282;47.188;8.896;2023-01-15T13:01:02;60.96;50.14;72.67;;
57439;Laerm;43282;47.188;8.896;2023-01-15T13:03:29;60.43;48.69;73.94;;
57439;Laerm;43282;47.188;8.896;2023-01-15T13:05:59;59.36;48.73;71.82;;
57439;Laerm;43282;47.188;8.896;2023-01-15T13:08:28;59.81;47.98;72.68;;
57439;Laerm;43282;47.188;8.896;2023-01-15T13:10:55;60.85;48.36;79.05;;
57439;Laerm;43282;47.188;8.896;2023-01-15T13:13:21;60.38;49.03;71.92;;
57439;Laerm;43282;47.188;8.896;2023-01-15T13:18:31;61.89;48.96;74.20;;
57439;Laerm;43282;47.188;8.896;2023-01-15T13:21:00;62.98;51.40;73.66;;
57439;Laerm;43282;47.188;8.896;2023-01-15T13:23:35;61.83;49.82;71.94;;
57439;Laerm;43282;47.188;8.896;2023-01-15T13:31:05;59.13;49.06;71.04;;
57439;Laerm;43282;47.188;8.896;2023-01-15T13:33:42;59.97;48.85;71.99;;
57439;Laerm;43282;47.188;8.896;2023-01-15T13:36:16;60.63;49.19;70.99;;
57439;Laerm;43282;47.188;8.896;2023-01-15T13:38:43;59.35;47.72;71.83;;
57439;Laerm;43282;47.188;8.896;2023-01-15T13:41:11;60.94;48.42;72.57;;
57439;Laerm;43282;47.188;8.896;2023-01-15T13:44:01;61.62;49.11;75.15;;
57439;Laerm;43282;47.188;8.896;2023-01-15T13:46:28;59.85;48.67;71.86;;
57439;Laerm;43282;47.188;8.896;2023-01-15T13:48:53;60.01;48.95;71.58;;
57439;Laerm;43282;47.188;8.896;2023-01-15T13:51:23;61.26;49.70;70.93;;
57439;Laerm;43282;47.188;8.896;2023-01-15T13:53:50;59.22;47.81;71.81;;
57439;Laerm;43282;47.188;8.896;2023-01-15T13:56:24;60.02;47.00;70.72;;
57439;Laerm;43282;47.188;8.896;2023-01-15T13:58:51;61.10;48.48;72.15;;
57439;Laerm;43282;47.188;8.896;2023-01-15T14:03:53;61.38;47.76;75.93;;
57439;Laerm;43282;47.188;8.896;2023-01-15T14:06:19;58.67;48.07;75.03;;
57439;Laerm;43282;47.188;8.896;2023-01-15T14:08:44;59.30;48.63;73.45;;
57439;Laerm;43282;47.188;8.896;2023-01-15T14:13:58;61.06;49.00;73.30;;
57439;Laerm;43282;47.188;8.896;2023-01-15T14:16:31;60.34;47.00;72.54;;
57439;Laerm;43282;47.188;8.896;2023-01-15T14:21:46;61.11;46.80;71.64;;
57439;Laerm;43282;47.188;8.896;2023-01-15T14:26:56;59.30;45.63;75.54;;
57439;Laerm;43282;47.188;8.896;2023-01-15T14:32:57;61.31;46.30;72.78;;
57439;Laerm;43282;47.188;8.896;2023-01-15T14:34:54;59.25;45.60;71.92;;
57439;Laerm;43282;47.188;8.896;2023-01-15T14:37:25;58.45;46.91;70.99;;
57439;Laerm;43282;47.188;8.896;2023-01-15T14:39:52;56.40;45.45;69.83;;
57439;Laerm;43282;47.188;8.896;2023-01-15T14:47:31;59.37;45.11;70.42;;
57439;Laerm;43282;47.188;8.896;2023-01-15T14:49:59;55.25;44.03;67.97;;
57439;Laerm;43282;47.188;8.896;2023-01-15T14:52:25;60.69;49.06;71.69;;
57439;Laerm;43282;47.188;8.896;2023-01-15T14:54:51;61.54;50.49;78.58;;
57439;Laerm;43282;47.188;8.896;2023-01-15T14:57:17;60.06;49.18;69.99;;
57439;Laerm;43282;47.188;8.896;2023-01-15T14:59:46;56.27;46.66;68.59;;
57439;Laerm;43282;47.188;8.896;2023-01-15T15:02:20;60.71;49.21;74.33;;
57439;Laerm;43282;47.188;8.896;2023-01-15T15:04:51;58.73;49.70;72.84;;
57439;Laerm;43282;47.188;8.896;2023-01-15T15:07:22;61.25;47.19;71.15;;
57439;Laerm;43282;47.188;8.896;2023-01-15T15:09:55;59.00;49.30;72.25;;
57439;Laerm;43282;47.188;8.896;2023-01-15T15:15:04;59.89;50.67;72.63;;
57439;Laerm;43282;47.188;8.896;2023-01-15T15:17:36;58.29;50.29;68.05;;